createdAt,value
2022-08-17T00:00:35.041Z,99997.75
2022-08-17T00:03:06.724Z,99993.47
2022-08-17T00:05:37.636Z,99990.81
2022-08-17T00:08:07.060Z,99989.81
2022-08-17T00:10:35.695Z,99987.72
2022-08-17T00:13:08.083Z,99984.59
2022-08-17T00:15:36.459Z,99978.97
2022-08-17T00:18:53.770Z,99984.25
2022-08-17T00:20:53.232Z,99974.84
2022-08-17T00:23:23.277Z,99958.59
2022-08-17T00:25:51.830Z,99972.38
2022-08-17T00:28:21.022Z,99966.19
2022-08-17T00:30:51.360Z,99963.97
2022-08-17T00:33:24.217Z,99973.56
2022-08-17T00:35:52.973Z,99976.59
2022-08-17T00:38:22.849Z,99960.59
2022-08-17T00:40:55.777Z,99968.19
2022-08-17T00:43:32.192Z,99976.81
2022-08-17T00:46:01.936Z,99980.00
2022-08-17T00:48:30.852Z,99973.72
2022-08-17T00:51:09.605Z,99965.97
2022-08-17T00:53:41.989Z,99965.31
2022-08-17T00:56:14.847Z,99969.59
2022-08-17T00:58:43.296Z,99971.59
2022-08-17T01:01:21.419Z,99971.97
2022-08-17T01:03:51.891Z,99973.97
2022-08-17T01:06:20.792Z,99974.31
2022-08-17T01:08:57.569Z,99972.19
2022-08-17T01:11:26.064Z,99971.38
2022-08-17T01:13:54.518Z,99980.69
2022-08-17T01:16:25.599Z,99970.28
2022-08-17T01:18:56.529Z,99970.44
2022-08-17T01:21:30.751Z,99966.72
2022-08-17T01:24:01.220Z,99971.19
2022-08-17T01:26:30.955Z,99964.25
2022-08-17T01:28:59.225Z,99969.53
2022-08-17T01:31:32.015Z,99972.81
2022-08-17T01:34:02.635Z,99966.94
2022-08-17T01:36:30.701Z,99977.16
2022-08-17T01:39:00.232Z,99973.50
2022-08-17T01:41:29.515Z,99976.47
2022-08-17T01:44:03.210Z,99966.56
2022-08-17T01:46:32.361Z,99956.13
2022-08-17T01:49:01.737Z,99978.34
2022-08-17T01:51:33.027Z,99984.75
2022-08-17T01:54:06.294Z,99976.84
2022-08-17T01:56:36.237Z,99971.91
2022-08-17T01:59:04.705Z,99978.19
2022-08-17T02:01:34.930Z,99973.88
2022-08-17T02:04:04.162Z,99969.78
2022-08-17T02:06:53.765Z,99959.09
2022-08-17T02:09:25.432Z,99969.97
2022-08-17T02:11:54.330Z,99967.13
2022-08-17T02:14:22.827Z,99963.50
2022-08-17T02:16:51.263Z,99972.63
2022-08-17T02:19:19.805Z,99968.97
2022-08-17T02:21:50.799Z,99969.16
2022-08-17T02:24:58.534Z,99974.88
2022-08-17T02:27:11.552Z,99972.41
2022-08-17T02:29:39.624Z,99975.25
2022-08-17T02:32:08.766Z,99983.22
2022-08-17T02:34:36.798Z,99975.69
2022-08-17T02:37:04.837Z,99980.63
2022-08-17T02:39:32.921Z,99978.31
2022-08-17T02:42:05.077Z,99985.78
2022-08-17T02:44:38.806Z,99986.91
2022-08-17T02:47:09.002Z,99988.03
2022-08-17T02:49:37.387Z,99984.91
2022-08-17T02:52:07.071Z,99987.06
2022-08-17T02:54:41.340Z,99987.06
2022-08-17T02:57:10.576Z,99989.91
2022-08-17T02:59:41.628Z,99983.91
2022-08-17T03:02:13.038Z,99994.50
2022-08-17T03:04:41.126Z,99999.13
2022-08-17T03:07:09.142Z,99992.34
2022-08-17T03:09:37.241Z,99988.06
2022-08-17T03:12:07.456Z,99983.59
2022-08-17T03:14:41.443Z,99981.50
2022-08-17T03:17:11.337Z,99984.19
2022-08-17T03:19:45.435Z,99988.00
2022-08-17T03:22:34.737Z,99988.66
2022-08-17T03:25:01.495Z,99982.56
2022-08-17T03:27:30.269Z,99996.09
2022-08-17T03:29:59.617Z,99987.69
2022-08-17T03:32:27.609Z,99987.34
2022-08-17T03:34:59.611Z,99989.16
2022-08-17T03:37:27.718Z,99991.63
2022-08-17T03:39:55.817Z,99995.25
2022-08-17T03:42:32.225Z,99989.00
2022-08-17T03:45:03.485Z,99998.56
2022-08-17T03:47:48.878Z,100007.59
2022-08-17T03:50:34.514Z,100011.72
2022-08-17T03:53:23.331Z,100021.00
2022-08-17T03:56:08.827Z,100018.03
2022-08-17T03:58:37.493Z,100017.34
2022-08-17T04:01:08.165Z,100019.81
2022-08-17T04:03:36.818Z,100022.81
2022-08-17T04:06:05.653Z,100029.59
2022-08-17T04:08:33.957Z,100038.47
2022-08-17T04:11:02.350Z,100038.78
2022-08-17T04:13:30.560Z,100039.59
2022-08-17T04:15:59.333Z,100033.38
2022-08-17T04:18:28.851Z,100043.88
2022-08-17T04:20:58.021Z,100033.28
2022-08-17T04:23:32.798Z,100042.97
2022-08-17T04:26:02.118Z,100043.22
2022-08-17T04:28:31.179Z,100041.03
2022-08-17T04:30:59.267Z,100047.84
2022-08-17T04:33:31.100Z,100048.75
2022-08-17T04:36:01.852Z,100051.44
2022-08-17T04:38:31.980Z,100048.34
2022-08-17T04:41:18.326Z,100049.91
2022-08-17T04:43:48.812Z,100056.47
2022-08-17T04:46:18.426Z,100051.81
2022-08-17T04:48:49.651Z,100045.19
2022-08-17T04:51:19.670Z,100041.50
2022-08-17T04:53:54.120Z,100042.72
2022-08-17T04:56:25.170Z,100051.81
2022-08-17T04:58:55.772Z,100042.25
2022-08-17T05:01:25.433Z,100044.06
2022-08-17T05:03:56.545Z,100030.31
2022-08-17T05:06:25.254Z,100042.81
2022-08-17T05:08:54.063Z,100045.13
2022-08-17T05:11:22.566Z,100046.47
2022-08-17T05:13:51.218Z,100053.34
2022-08-17T05:16:20.714Z,100044.56
2022-08-17T05:18:49.119Z,100049.09
2022-08-17T05:21:19.884Z,100055.97
2022-08-17T05:23:53.903Z,100056.81
2022-08-17T05:26:26.845Z,100059.38
2022-08-17T05:28:59.481Z,100057.63
2022-08-17T05:31:29.826Z,100066.06
2022-08-17T05:33:58.493Z,100058.53
2022-08-17T05:36:41.565Z,100058.34
2022-08-17T05:39:16.082Z,100060.59
2022-08-17T05:41:44.744Z,100058.13
2022-08-17T05:44:12.834Z,100057.69
2022-08-17T05:46:44.722Z,100054.19
2022-08-17T05:49:16.009Z,100056.59
2022-08-17T05:52:07.291Z,100056.72
2022-08-17T05:54:45.328Z,100046.94
2022-08-17T05:57:53.511Z,100042.75
2022-08-17T06:00:30.693Z,100045.13
2022-08-17T06:03:20.132Z,100054.88
2022-08-17T06:06:01.415Z,100059.06
2022-08-17T06:08:38.169Z,100049.56
2022-08-17T06:11:16.904Z,100046.44
2022-08-17T06:14:04.332Z,100052.16
2022-08-17T06:16:37.463Z,100049.59
2022-08-17T06:19:07.766Z,100047.63
2022-08-17T06:21:40.528Z,100048.25
2022-08-17T06:24:29.255Z,100057.59
2022-08-17T06:27:03.118Z,100062.19
2022-08-17T06:29:39.962Z,100045.72
2022-08-17T06:32:12.644Z,100053.38
2022-08-17T06:34:42.821Z,100048.16
2022-08-17T06:37:28.824Z,100054.31
2022-08-17T06:40:13.692Z,100055.75
2022-08-17T06:42:54.619Z,100055.72
2022-08-17T06:45:39.150Z,100057.34
2022-08-17T06:48:13.982Z,100048.44
2022-08-17T06:50:49.047Z,100050.91
2022-08-17T06:53:25.911Z,100053.47
2022-08-17T06:56:01.498Z,100044.56
2022-08-17T06:58:31.624Z,100049.91
2022-08-17T07:01:06.983Z,100050.25
2022-08-17T07:03:40.825Z,100054.22
2022-08-17T07:06:13.878Z,100047.81
2022-08-17T07:08:46.159Z,100060.97
2022-08-17T07:11:19.391Z,100055.94
2022-08-17T07:13:55.726Z,100062.09
2022-08-17T07:16:27.558Z,100062.22
2022-08-17T07:18:58.024Z,100054.56
2022-08-17T07:21:40.954Z,100062.91
2022-08-17T07:24:30.064Z,100063.53
2022-08-17T07:27:09.409Z,100061.06
2022-08-17T07:29:41.865Z,100067.22
2022-08-17T07:32:12.554Z,100071.59
2022-08-17T07:35:16.250Z,100051.91
2022-08-17T07:37:53.264Z,100070.34
2022-08-17T07:40:27.097Z,100051.50
2022-08-17T07:43:14.031Z,100061.69
2022-08-17T07:46:32.371Z,100058.72
2022-08-17T07:49:20.151Z,100051.13
2022-08-17T07:52:47.612Z,100055.19
2022-08-17T07:54:52.023Z,100056.16
2022-08-17T07:57:35.683Z,100058.38
2022-08-17T08:00:32.302Z,100053.50
2022-08-17T08:03:16.111Z,100044.47
2022-08-17T08:05:54.515Z,100060.25
2022-08-17T08:08:28.309Z,100054.50
2022-08-17T08:11:03.537Z,100055.28
2022-08-17T08:13:33.363Z,100052.63
2022-08-17T08:16:24.500Z,100051.91
2022-08-17T08:18:57.214Z,100048.28
2022-08-17T08:21:47.406Z,100049.25
2022-08-17T08:24:49.517Z,100050.41
2022-08-17T08:27:32.028Z,100052.16
2022-08-17T08:30:06.546Z,100052.44
2022-08-17T08:32:50.389Z,100041.75
2022-08-17T08:35:26.935Z,100052.94
2022-08-17T08:38:07.643Z,100045.91
2022-08-17T08:40:51.853Z,100042.84
2022-08-17T08:43:28.318Z,100039.75
2022-08-17T08:46:06.106Z,100044.91
2022-08-17T08:49:10.176Z,100044.84
2022-08-17T08:51:53.103Z,100044.22
2022-08-17T08:54:39.583Z,100044.34
2022-08-17T08:57:30.747Z,100041.16
2022-08-17T09:00:12.910Z,100039.81
2022-08-17T09:03:03.767Z,100038.78
2022-08-17T09:05:49.049Z,100048.63
2022-08-17T09:08:25.475Z,100045.59
2022-08-17T09:11:01.022Z,100041.84
2022-08-17T09:13:40.503Z,100043.25
2022-08-17T09:16:15.395Z,100033.84
2022-08-17T09:19:00.068Z,100037.16
2022-08-17T09:21:47.988Z,100032.28
2022-08-17T09:24:24.274Z,100036.06
2022-08-17T09:26:59.136Z,100038.53
2022-08-17T09:29:35.334Z,100030.09
2022-08-17T09:32:06.458Z,100034.97
2022-08-17T09:34:39.734Z,100031.72
2022-08-17T09:37:24.381Z,100023.66
2022-08-17T09:40:04.244Z,100033.91
2022-08-17T09:42:38.921Z,100036.84
2022-08-17T09:45:18.154Z,100039.31
2022-08-17T09:47:51.510Z,100035.25
2022-08-17T09:51:03.266Z,100027.38
2022-08-17T09:53:16.827Z,100033.84
2022-08-17T09:56:07.061Z,100028.22
2022-08-17T09:58:51.295Z,100031.16
2022-08-17T10:01:36.849Z,100021.13
2022-08-17T10:04:29.295Z,100029.25
2022-08-17T10:07:03.329Z,100032.78
2022-08-17T10:09:43.774Z,100026.28
2022-08-17T10:12:29.842Z,100028.97
2022-08-17T10:15:09.790Z,100021.41
2022-08-17T10:17:44.246Z,100024.38
2022-08-17T10:20:17.166Z,100009.97
2022-08-17T10:23:05.535Z,100016.16
2022-08-17T10:25:56.185Z,100003.44
2022-08-17T10:28:30.201Z,100001.63
2022-08-17T10:31:34.137Z,100005.91
2022-08-17T10:34:09.554Z,99996.44
2022-08-17T10:36:49.612Z,99991.09
2022-08-17T10:39:30.694Z,99996.50
2022-08-17T10:42:13.943Z,99990.00
2022-08-17T10:45:03.054Z,99987.25
2022-08-17T10:48:06.259Z,99978.50
2022-08-17T10:50:49.576Z,99982.34
2022-08-17T10:53:51.091Z,99985.34
2022-08-17T10:56:21.875Z,99979.19
2022-08-17T10:58:54.087Z,99975.03
2022-08-17T11:01:45.428Z,99972.09
2022-08-17T11:04:31.234Z,99969.94
2022-08-17T11:07:10.072Z,99968.56
2022-08-17T11:09:56.278Z,99960.75
2022-08-17T11:12:37.687Z,99960.69
2022-08-17T11:15:19.704Z,99960.25
2022-08-17T11:18:02.300Z,99966.75
2022-08-17T11:21:11.150Z,99948.88
2022-08-17T11:24:14.754Z,99958.03
2022-08-17T11:26:48.921Z,99956.47
2022-08-17T11:29:25.730Z,99957.53
2022-08-17T11:32:08.088Z,99957.50
2022-08-17T11:34:41.070Z,99947.00
2022-08-17T11:37:42.910Z,99942.44
2022-08-17T11:40:29.025Z,99938.88
2022-08-17T11:43:14.703Z,99939.97
2022-08-17T11:46:05.475Z,99941.59
2022-08-17T11:48:57.284Z,99923.22
2022-08-17T11:51:46.590Z,99924.81
2022-08-17T11:54:41.106Z,99935.38
2022-08-17T11:57:54.627Z,99928.94
2022-08-17T12:00:51.959Z,99917.59
2022-08-17T12:03:27.529Z,99912.28
2022-08-17T12:06:07.075Z,99914.16
2022-08-17T12:08:43.600Z,99917.13
2022-08-17T12:11:19.062Z,99912.22
2022-08-17T12:14:08.302Z,99905.75
2022-08-17T12:16:36.335Z,99915.00
2022-08-17T12:19:06.146Z,99901.44
2022-08-17T12:21:46.327Z,99909.81
2022-08-17T12:24:29.323Z,99912.25
2022-08-17T12:26:59.659Z,99908.97
2022-08-17T12:29:35.915Z,99897.56
2022-08-17T12:32:14.575Z,99904.09
2022-08-17T12:34:45.442Z,99893.78
2022-08-17T12:37:20.021Z,99881.88
2022-08-17T12:39:59.831Z,99894.66
2022-08-17T12:42:31.224Z,99887.38
2022-08-17T12:44:59.939Z,99891.13
2022-08-17T12:47:30.478Z,99888.47
2022-08-17T12:50:29.539Z,99874.44
2022-08-17T12:53:02.215Z,99872.03
2022-08-17T12:55:36.766Z,99886.63
2022-08-17T12:58:05.705Z,99887.69
2022-08-17T13:00:35.934Z,99889.56
2022-08-17T13:03:07.881Z,99886.88
2022-08-17T13:05:40.087Z,99881.56
2022-08-17T13:08:17.994Z,99883.47
2022-08-17T13:10:56.619Z,99882.06
2022-08-17T13:13:26.863Z,99886.66
2022-08-17T13:15:58.580Z,99882.38
2022-08-17T13:18:39.140Z,99880.66
2022-08-17T13:21:08.637Z,99873.97
2022-08-17T13:23:38.867Z,99868.56
2022-08-17T13:26:17.300Z,99884.22
2022-08-17T13:28:50.028Z,99881.00
2022-08-17T13:31:33.092Z,99885.31
2022-08-17T13:34:32.062Z,99864.03
2022-08-17T13:37:36.029Z,99880.47
2022-08-17T13:40:36.849Z,99876.97
2022-08-17T13:43:05.600Z,99851.31
2022-08-17T13:45:39.245Z,99866.72
2022-08-17T13:48:11.938Z,99878.88
2022-08-17T13:50:45.144Z,99875.09
2022-08-17T13:53:24.602Z,99880.50
2022-08-17T13:55:59.638Z,99875.59
2022-08-17T13:58:33.773Z,99876.41
2022-08-17T14:01:31.506Z,99879.34
2022-08-17T14:04:02.205Z,99878.78
2022-08-17T14:06:51.838Z,99876.94
2022-08-17T14:09:25.022Z,99875.56
2022-08-17T14:11:56.229Z,99881.16
2022-08-17T14:14:24.600Z,99887.28
2022-08-17T14:16:54.086Z,99898.56
2022-08-17T14:19:23.045Z,99884.56
2022-08-17T14:21:58.979Z,99889.50
2022-08-17T14:24:32.784Z,99890.34
2022-08-17T14:27:04.130Z,99890.59
2022-08-17T14:29:34.403Z,99887.03
2022-08-17T14:32:08.102Z,99886.94
2022-08-17T14:34:36.290Z,99881.34
2022-08-17T14:37:04.394Z,99886.69
2022-08-17T14:39:32.964Z,99892.22
2022-08-17T14:42:03.420Z,99888.97
2022-08-17T14:44:31.586Z,99887.13
2022-08-17T14:46:59.785Z,99893.06
2022-08-17T14:49:28.406Z,99895.03
2022-08-17T14:51:56.493Z,99895.28
2022-08-17T14:54:33.710Z,99901.84
2022-08-17T14:57:23.419Z,99895.91
2022-08-17T14:59:55.213Z,99879.59
2022-08-17T15:02:29.260Z,99874.56
2022-08-17T15:05:00.945Z,99875.94
2022-08-17T15:07:30.789Z,99883.44
2022-08-17T15:10:01.247Z,99877.16
2022-08-17T15:12:34.239Z,99866.63
2022-08-17T15:15:04.601Z,99868.66
2022-08-17T15:17:45.043Z,99864.59
2022-08-17T15:20:16.491Z,99865.78
2022-08-17T15:22:45.769Z,99874.38
2022-08-17T15:25:15.439Z,99877.06
2022-08-17T15:27:45.112Z,99873.72
2022-08-17T15:30:15.226Z,99859.47
2022-08-17T15:32:50.582Z,99870.19
2022-08-17T15:35:28.197Z,99876.47
2022-08-17T15:37:58.220Z,99875.72
2022-08-17T15:40:26.315Z,99872.31
2022-08-17T15:42:57.937Z,99882.66
2022-08-17T15:45:28.378Z,99870.13
2022-08-17T15:47:56.850Z,99874.56
2022-08-17T15:50:25.093Z,99877.97
2022-08-17T15:52:58.642Z,99903.50
2022-08-17T15:55:28.376Z,99903.19
2022-08-17T15:57:57.948Z,99915.56
2022-08-17T16:00:26.144Z,99911.06
2022-08-17T16:03:44.761Z,99915.16
2022-08-17T16:05:42.600Z,99917.06
2022-08-17T16:08:11.196Z,99921.56
2022-08-17T16:10:39.582Z,99926.41
2022-08-17T16:13:17.980Z,99938.22
2022-08-17T16:15:53.049Z,99937.28
2022-08-17T16:18:26.083Z,99929.78
2022-08-17T16:20:55.089Z,99934.50
2022-08-17T16:23:23.554Z,99936.56
2022-08-17T16:25:53.566Z,99940.66
2022-08-17T16:28:27.482Z,99943.94
2022-08-17T16:31:07.913Z,99948.69
2022-08-17T16:33:37.494Z,99941.72
2022-08-17T16:36:06.273Z,99941.84
2022-08-17T16:38:34.410Z,99944.63
2022-08-17T16:41:02.642Z,99952.53
2022-08-17T16:43:32.336Z,99942.84
2022-08-17T16:46:01.439Z,99950.84
2022-08-17T16:48:30.023Z,99951.91
2022-08-17T16:51:03.418Z,99958.34
2022-08-17T16:53:33.202Z,99947.78
2022-08-17T16:56:01.307Z,99958.03
2022-08-17T16:58:30.242Z,99964.44
2022-08-17T17:00:59.993Z,99958.59
2022-08-17T17:03:30.487Z,99966.41
2022-08-17T17:06:13.726Z,99978.75
2022-08-17T17:08:44.963Z,99991.09
2022-08-17T17:11:17.983Z,99986.75
2022-08-17T17:13:48.600Z,99986.88
2022-08-17T17:16:35.871Z,99983.06
2022-08-17T17:19:10.873Z,99982.53
2022-08-17T17:21:44.870Z,99978.47
2022-08-17T17:24:18.943Z,99988.59
2022-08-17T17:27:01.615Z,99991.28
2022-08-17T17:29:48.822Z,99994.06
2022-08-17T17:32:23.470Z,99987.53
2022-08-17T17:34:56.251Z,99994.16
2022-08-17T17:37:30.224Z,99991.56
2022-08-17T17:40:02.863Z,99995.38
2022-08-17T17:42:33.274Z,99991.34
2022-08-17T17:45:08.707Z,99995.13
2022-08-17T17:47:38.438Z,99989.38
2022-08-17T17:50:08.150Z,99999.91
2022-08-17T17:52:45.458Z,100006.16
2022-08-17T17:55:24.641Z,100006.69
2022-08-17T17:58:03.006Z,99999.16
2022-08-17T18:00:38.944Z,100008.72
2022-08-17T18:03:22.083Z,100013.53
2022-08-17T18:06:05.411Z,100014.03
2022-08-17T18:08:45.087Z,100015.56
2022-08-17T18:11:24.531Z,100017.66
2022-08-17T18:14:14.692Z,100020.44
2022-08-17T18:16:43.837Z,100024.78
2022-08-17T18:19:15.735Z,100025.84
2022-08-17T18:21:47.382Z,100040.88
2022-08-17T18:24:15.719Z,100042.97
2022-08-17T18:26:50.531Z,100048.63
2022-08-17T18:29:31.784Z,100040.97
2022-08-17T18:32:19.271Z,100042.03
2022-08-17T18:34:50.641Z,100044.06
2022-08-17T18:37:32.961Z,100044.69
2022-08-17T18:40:02.467Z,100038.53
2022-08-17T18:42:32.237Z,100032.19
2022-08-17T18:45:00.302Z,100032.22
2022-08-17T18:47:29.691Z,100029.34
2022-08-17T18:50:25.031Z,100029.56
2022-08-17T18:52:55.287Z,100039.19
2022-08-17T18:55:27.895Z,100040.22
2022-08-17T18:57:58.812Z,100041.25
2022-08-17T19:00:36.702Z,100040.66
2022-08-17T19:03:19.960Z,100032.66
2022-08-17T19:05:53.295Z,100037.38
2022-08-17T19:08:22.940Z,100033.09
2022-08-17T19:10:54.258Z,100043.56
2022-08-17T19:13:29.754Z,100037.41
2022-08-17T19:16:11.410Z,100048.28
2022-08-17T19:18:47.630Z,100051.78
2022-08-17T19:21:22.651Z,100060.19
2022-08-17T19:23:55.618Z,100059.78
2022-08-17T19:26:53.637Z,100067.53
2022-08-17T19:29:27.216Z,100062.66
2022-08-17T19:31:56.306Z,100060.16
2022-08-17T19:34:33.357Z,100059.72
2022-08-17T19:37:21.621Z,100063.59
2022-08-17T19:39:56.426Z,100063.41
2022-08-17T19:42:34.716Z,100057.66
2022-08-17T19:45:13.087Z,100063.81
2022-08-17T19:47:55.399Z,100059.91
2022-08-17T19:50:38.475Z,100062.56
2022-08-17T19:53:18.568Z,100069.91
2022-08-17T19:55:55.085Z,100059.69
2022-08-17T19:58:36.573Z,100064.78
2022-08-17T20:01:08.512Z,100061.72
2022-08-17T20:03:42.411Z,100061.50
2022-08-17T20:06:14.039Z,100061.28
2022-08-17T20:08:54.986Z,100052.22
2022-08-17T20:11:29.608Z,100059.81
2022-08-17T20:14:04.483Z,100054.69
2022-08-17T20:16:34.345Z,100065.28
2022-08-17T20:19:06.245Z,100059.25
2022-08-17T20:21:40.211Z,100067.06
2022-08-17T20:24:21.092Z,100076.34
2022-08-17T20:26:58.447Z,100081.72
2022-08-17T20:29:40.059Z,100079.50
2022-08-17T20:32:22.106Z,100084.19
2022-08-17T20:35:01.123Z,100087.22
2022-08-17T20:37:34.403Z,100083.16
2022-08-17T20:40:23.047Z,100075.56
2022-08-17T20:42:51.080Z,100080.25
2022-08-17T20:45:58.938Z,100077.78
2022-08-17T20:48:38.455Z,100071.63
2022-08-17T20:51:26.037Z,100074.72
2022-08-17T20:54:30.380Z,100077.13
2022-08-17T20:57:01.053Z,100073.66
2022-08-17T20:59:57.708Z,100075.28
2022-08-17T21:02:28.965Z,100080.97
2022-08-17T21:05:08.090Z,100076.84
2022-08-17T21:07:59.050Z,100063.94
2022-08-17T21:10:37.335Z,100072.28
2022-08-17T21:13:56.108Z,100073.91
2022-08-17T21:16:33.818Z,100072.78
2022-08-17T21:19:16.981Z,100067.44
2022-08-17T21:21:58.362Z,100079.91
2022-08-17T21:24:36.627Z,100078.25
2022-08-17T21:27:14.124Z,100082.28
2022-08-17T21:29:54.318Z,100075.75
2022-08-17T21:32:31.461Z,100066.91
2022-08-17T21:35:23.261Z,100074.47
2022-08-17T21:37:54.925Z,100073.63
2022-08-17T21:40:26.751Z,100070.09
2022-08-17T21:42:58.359Z,100067.81
2022-08-17T21:45:30.292Z,100071.84
2022-08-17T21:48:14.196Z,100060.03
2022-08-17T21:50:45.886Z,100069.38
2022-08-17T21:53:25.375Z,100066.53
2022-08-17T21:55:55.174Z,100048.66
2022-08-17T21:58:30.501Z,100083.69
2022-08-17T22:01:22.380Z,100072.25
2022-08-17T22:04:01.849Z,100080.41
2022-08-17T22:06:34.740Z,100072.25
2022-08-17T22:09:08.322Z,100066.31
2022-08-17T22:11:48.370Z,100077.66
2022-08-17T22:14:18.606Z,100074.41
2022-08-17T22:16:50.747Z,100071.75
2022-08-17T22:19:21.197Z,100072.16
2022-08-17T22:21:49.326Z,100068.06
2022-08-17T22:24:21.579Z,100073.38
2022-08-17T22:27:02.997Z,100052.06
2022-08-17T22:29:57.797Z,100070.09
2022-08-17T22:32:42.648Z,100066.19
2022-08-17T22:35:26.115Z,100069.66
2022-08-17T22:37:54.167Z,100070.47
2022-08-17T22:40:27.358Z,100066.28
2022-08-17T22:42:57.284Z,100054.47
2022-08-17T22:45:26.001Z,100074.38
2022-08-17T22:47:56.667Z,100076.56
2022-08-17T22:50:30.520Z,100073.66
2022-08-17T22:53:19.672Z,100081.59
2022-08-17T22:56:09.795Z,100081.19
2022-08-17T22:59:02.234Z,100076.78
2022-08-17T23:01:32.673Z,100075.06
2022-08-17T23:04:03.022Z,100076.84
2022-08-17T23:06:33.955Z,100081.50
2022-08-17T23:09:04.288Z,100084.69
2022-08-17T23:11:49.547Z,100083.06
2022-08-17T23:14:19.921Z,100074.22
2022-08-17T23:16:48.804Z,100077.22
2022-08-17T23:19:18.893Z,100086.75
2022-08-17T23:21:52.674Z,100095.13
2022-08-17T23:24:25.418Z,100083.25
2022-08-17T23:26:53.976Z,100084.34
2022-08-17T23:29:22.632Z,100088.38
2022-08-17T23:31:51.838Z,100083.78
2022-08-17T23:34:20.387Z,100089.38
2022-08-17T23:36:52.698Z,100084.09
2022-08-17T23:39:24.723Z,100084.25
2022-08-17T23:41:56.411Z,100089.56
2022-08-17T23:44:24.637Z,100083.72
2022-08-17T23:46:53.317Z,100080.41
2022-08-17T23:49:21.370Z,100095.31
2022-08-17T23:51:50.843Z,100086.25
2022-08-17T23:54:23.941Z,100069.53
2022-08-17T23:56:52.055Z,100078.41
2022-08-17T23:59:22.594Z,100080.22
